createdAt,value
2022-11-27T00:01:38.434Z,2.88
2022-11-27T00:04:06.028Z,2.17
2022-11-27T00:06:34.676Z,2.65
2022-11-27T00:09:01.850Z,3.00
2022-11-27T00:11:28.921Z,2.47
2022-11-27T00:13:55.199Z,2.40
2022-11-27T00:16:22.380Z,2.38
2022-11-27T00:18:49.060Z,2.97
2022-11-27T00:21:22.356Z,2.55
2022-11-27T00:23:49.028Z,2.45
2022-11-27T00:26:15.308Z,2.45
2022-11-27T00:28:41.661Z,2.90
2022-11-27T00:31:21.763Z,2.42
2022-11-27T00:33:48.700Z,2.45
2022-11-27T00:36:15.342Z,2.90
2022-11-27T00:38:41.889Z,2.40
2022-11-27T00:41:12.610Z,3.05
2022-11-27T00:43:44.682Z,2.65
2022-11-27T00:46:15.041Z,2.83
2022-11-27T00:48:41.692Z,2.65
2022-11-27T00:51:08.792Z,2.53
2022-11-27T00:53:35.101Z,2.78
2022-11-27T00:56:01.534Z,2.50
2022-11-27T00:58:28.070Z,2.45
2022-11-27T01:00:58.108Z,2.58
2022-11-27T01:03:27.291Z,2.63
2022-11-27T01:05:53.665Z,2.35
2022-11-27T01:08:20.264Z,3.25
2022-11-27T01:10:54.696Z,2.60
2022-11-27T01:13:29.292Z,3.05
2022-11-27T01:15:59.971Z,2.90
2022-11-27T01:18:26.340Z,2.80
2022-11-27T01:20:52.862Z,2.97
2022-11-27T01:23:19.355Z,2.78
2022-11-27T01:25:45.616Z,2.72
2022-11-27T01:28:11.821Z,2.55
2022-11-27T01:30:38.721Z,2.83
2022-11-27T01:33:05.003Z,2.92
2022-11-27T01:35:33.664Z,2.70
2022-11-27T01:38:00.028Z,2.63
2022-11-27T01:40:26.321Z,2.78
2022-11-27T01:42:52.528Z,2.60
2022-11-27T01:45:20.067Z,2.58
2022-11-27T01:48:00.616Z,2.88
2022-11-27T01:50:29.217Z,2.65
2022-11-27T01:53:05.574Z,2.80
2022-11-27T01:55:36.948Z,2.92
2022-11-27T01:58:24.060Z,3.05
2022-11-27T02:03:16.639Z,2.50
2022-11-27T02:05:42.946Z,2.45
2022-11-27T02:08:10.622Z,2.30
2022-11-27T02:10:39.882Z,2.63
2022-11-27T02:13:11.936Z,2.20
2022-11-27T02:15:44.214Z,2.75
2022-11-27T02:18:40.167Z,2.58
2022-11-27T02:21:15.391Z,2.50
2022-11-27T02:23:53.212Z,2.85
2022-11-27T02:26:22.595Z,2.58
2022-11-27T02:28:51.820Z,2.60
2022-11-27T02:31:25.152Z,2.20
2022-11-27T02:33:54.310Z,3.05
2022-11-27T02:36:26.590Z,2.30
2022-11-27T02:39:14.788Z,2.25
2022-11-27T02:41:43.669Z,2.20
2022-11-27T02:44:10.498Z,2.50
2022-11-27T02:46:37.417Z,2.33
2022-11-27T02:49:06.770Z,2.25
2022-11-27T02:51:37.296Z,2.38
2022-11-27T02:54:05.114Z,2.20
2022-11-27T02:56:32.757Z,2.50
2022-11-27T02:59:01.414Z,2.40
2022-11-27T03:01:29.674Z,2.17
2022-11-27T03:03:57.195Z,2.33
2022-11-27T03:06:33.482Z,2.15
2022-11-27T03:09:07.591Z,2.40
2022-11-27T03:11:34.170Z,2.20
2022-11-27T03:14:05.688Z,2.35
2022-11-27T03:16:40.212Z,2.33
2022-11-27T03:19:18.224Z,2.45
2022-11-27T03:21:47.726Z,1.90
2022-11-27T03:24:14.145Z,2.00
2022-11-27T03:26:41.003Z,2.10
2022-11-27T03:29:09.799Z,2.10
2022-11-27T03:31:37.007Z,2.25
2022-11-27T03:34:03.972Z,2.00
2022-11-27T03:36:30.321Z,2.28
2022-11-27T03:38:56.638Z,2.22
2022-11-27T03:41:28.708Z,1.88
2022-11-27T03:44:04.248Z,2.17
2022-11-27T03:46:53.921Z,1.88
2022-11-27T03:49:37.204Z,1.80
2022-11-27T03:52:26.583Z,2.00
2022-11-27T03:54:59.474Z,1.73
2022-11-27T03:57:32.502Z,1.70
2022-11-27T04:00:00.845Z,2.22
2022-11-27T04:02:37.749Z,1.60
2022-11-27T04:05:04.143Z,2.00
2022-11-27T04:07:30.479Z,1.50
2022-11-27T04:09:56.755Z,1.98
2022-11-27T04:12:22.994Z,1.95
2022-11-27T04:14:49.312Z,1.83
2022-11-27T04:17:15.653Z,2.03
2022-11-27T04:19:41.971Z,1.65
2022-11-27T04:22:08.277Z,1.70
2022-11-27T04:24:34.565Z,1.63
2022-11-27T04:27:00.854Z,1.77
2022-11-27T04:29:27.105Z,2.05
2022-11-27T04:31:53.458Z,1.88
2022-11-27T04:34:19.810Z,1.98
2022-11-27T04:36:46.335Z,2.15
2022-11-27T04:39:13.304Z,2.08
2022-11-27T04:41:39.750Z,2.10
2022-11-27T04:44:06.419Z,2.00
2022-11-27T04:46:32.769Z,1.73
2022-11-27T04:48:59.091Z,1.60
2022-11-27T04:51:25.380Z,1.92
2022-11-27T04:53:51.599Z,2.00
2022-11-27T04:56:17.863Z,2.10
2022-11-27T04:58:44.083Z,1.80
2022-11-27T05:01:10.442Z,2.05
2022-11-27T05:03:36.991Z,1.95
2022-11-27T05:06:03.603Z,2.40
2022-11-27T05:08:30.506Z,2.10
2022-11-27T05:11:00.918Z,1.67
2022-11-27T05:13:27.336Z,1.90
2022-11-27T05:15:53.768Z,1.80
2022-11-27T05:18:20.140Z,2.20
2022-11-27T05:20:46.451Z,2.42
2022-11-27T05:23:16.203Z,2.13
2022-11-27T05:25:42.674Z,1.80
2022-11-27T05:28:08.955Z,1.85
2022-11-27T05:30:36.570Z,1.90
2022-11-27T05:33:02.814Z,2.13
2022-11-27T05:35:29.075Z,1.98
2022-11-27T05:37:55.445Z,1.85
2022-11-27T05:40:21.788Z,2.03
2022-11-27T05:42:48.044Z,2.00
2022-11-27T05:45:14.410Z,1.65
2022-11-27T05:47:40.720Z,1.90
2022-11-27T05:50:08.327Z,2.10
2022-11-27T05:52:34.643Z,2.00
2022-11-27T05:55:00.961Z,1.63
2022-11-27T05:57:28.371Z,2.10
2022-11-27T05:59:54.649Z,2.10
2022-11-27T06:02:26.353Z,1.67
2022-11-27T06:04:55.382Z,1.90
2022-11-27T06:07:21.657Z,2.40
2022-11-27T06:09:47.983Z,1.85
2022-11-27T06:12:14.619Z,2.10
2022-11-27T06:14:41.139Z,2.25
2022-11-27T06:17:07.669Z,2.20
2022-11-27T06:19:33.999Z,1.90
2022-11-27T06:22:00.305Z,2.10
2022-11-27T06:24:26.816Z,2.17
2022-11-27T06:26:53.159Z,2.38
2022-11-27T06:29:19.485Z,2.38
2022-11-27T06:31:45.847Z,2.28
2022-11-27T06:34:12.495Z,2.47
2022-11-27T06:36:40.766Z,2.60
2022-11-27T06:39:07.855Z,2.20
2022-11-27T06:41:34.219Z,2.95
2022-11-27T06:44:01.000Z,2.40
2022-11-27T06:46:30.432Z,2.90
2022-11-27T06:48:57.974Z,2.58
2022-11-27T06:51:25.398Z,3.15
2022-11-27T06:53:52.647Z,2.63
2022-11-27T06:56:20.062Z,2.35
2022-11-27T06:58:46.583Z,2.17
2022-11-27T07:01:14.330Z,2.25
2022-11-27T07:03:40.762Z,2.20
2022-11-27T07:06:08.632Z,2.65
2022-11-27T07:08:35.276Z,2.70
2022-11-27T07:11:02.229Z,2.75
2022-11-27T07:13:29.350Z,2.72
2022-11-27T07:15:55.720Z,3.33
2022-11-27T07:18:22.250Z,2.50
2022-11-27T07:20:56.803Z,2.55
2022-11-27T07:23:23.258Z,3.00
2022-11-27T07:25:49.616Z,2.65
2022-11-27T07:28:18.808Z,2.67
2022-11-27T07:30:45.816Z,3.08
2022-11-27T07:33:12.041Z,2.70
2022-11-27T07:35:38.343Z,3.30
2022-11-27T07:38:04.608Z,2.72
2022-11-27T07:40:30.889Z,2.72
2022-11-27T07:42:58.357Z,2.95
2022-11-27T07:45:24.715Z,2.78
2022-11-27T07:47:52.251Z,2.70
2022-11-27T07:50:18.575Z,2.70
2022-11-27T07:52:44.862Z,2.65
2022-11-27T07:55:11.210Z,2.67
2022-11-27T07:57:37.470Z,2.90
2022-11-27T08:00:04.153Z,2.88
2022-11-27T08:02:30.398Z,2.88
2022-11-27T08:04:56.680Z,3.10
2022-11-27T08:07:29.672Z,2.95
2022-11-27T08:09:58.351Z,2.85
2022-11-27T08:12:25.059Z,2.72
2022-11-27T08:14:51.798Z,2.60
2022-11-27T08:17:18.128Z,3.13
2022-11-27T08:19:44.461Z,3.20
2022-11-27T08:22:13.873Z,3.08
2022-11-27T08:24:42.524Z,2.83
2022-11-27T08:27:09.506Z,3.45
2022-11-27T08:29:36.347Z,3.22
2022-11-27T08:32:03.120Z,3.10
2022-11-27T08:34:29.380Z,2.70
2022-11-27T08:36:55.687Z,3.50
2022-11-27T08:39:21.993Z,3.17
2022-11-27T08:41:48.763Z,3.67
2022-11-27T08:44:15.119Z,3.17
2022-11-27T08:46:42.862Z,3.08
2022-11-27T08:49:09.165Z,3.22
2022-11-27T08:51:35.800Z,3.08
2022-11-27T08:54:02.546Z,3.40
2022-11-27T08:56:28.917Z,2.88
2022-11-27T08:58:55.401Z,3.15
2022-11-27T09:01:23.169Z,3.53
2022-11-27T09:03:49.973Z,3.45
2022-11-27T09:06:21.422Z,3.00
2022-11-27T09:08:48.064Z,3.28
2022-11-27T09:11:15.397Z,3.40
2022-11-27T09:13:42.274Z,3.60
2022-11-27T09:16:12.836Z,3.28
2022-11-27T09:18:39.411Z,3.33
2022-11-27T09:21:07.227Z,3.20
2022-11-27T09:23:33.823Z,4.10
2022-11-27T09:26:04.539Z,3.72
2022-11-27T09:28:32.009Z,3.63
2022-11-27T09:30:59.802Z,3.67
2022-11-27T09:33:26.875Z,2.88
2022-11-27T09:35:53.331Z,3.33
2022-11-27T09:38:19.676Z,3.42
2022-11-27T09:40:50.041Z,3.38
2022-11-27T09:43:17.469Z,3.35
2022-11-27T09:45:46.533Z,3.40
2022-11-27T09:48:16.792Z,3.33
2022-11-27T09:50:50.300Z,3.42
2022-11-27T09:53:26.477Z,3.03
2022-11-27T09:55:54.607Z,3.35
2022-11-27T09:58:38.762Z,3.45
2022-11-27T10:01:18.728Z,2.95
2022-11-27T10:03:45.875Z,2.92
2022-11-27T10:06:26.106Z,3.13
2022-11-27T10:09:00.189Z,3.20
2022-11-27T10:11:32.377Z,3.20
2022-11-27T10:14:04.881Z,3.28
2022-11-27T10:16:38.009Z,3.20
2022-11-27T10:19:11.862Z,3.17
2022-11-27T10:21:38.211Z,3.40
2022-11-27T10:24:10.716Z,3.08
2022-11-27T10:26:41.131Z,3.05
2022-11-27T10:29:17.563Z,3.00
2022-11-27T10:34:29.134Z,3.50
2022-11-27T10:36:56.544Z,3.17
2022-11-27T10:39:28.213Z,3.30
2022-11-27T10:42:01.862Z,2.70
2022-11-27T10:44:31.328Z,2.88
2022-11-27T10:47:02.154Z,2.90
2022-11-27T10:49:28.664Z,2.70
2022-11-27T10:51:54.960Z,2.72
2022-11-27T10:54:30.422Z,2.92
2022-11-27T10:57:32.316Z,2.70
2022-11-27T11:00:07.749Z,3.00
2022-11-27T11:02:35.090Z,3.35
2022-11-27T11:05:40.897Z,2.80
2022-11-27T11:08:16.089Z,2.83
2022-11-27T11:10:50.850Z,2.75
2022-11-27T11:13:20.275Z,2.83
2022-11-27T11:15:52.007Z,2.88
2022-11-27T11:18:26.007Z,3.97
2022-11-27T11:20:54.634Z,3.08
2022-11-27T11:23:23.377Z,2.70
2022-11-27T11:25:51.592Z,2.92
2022-11-27T11:28:18.969Z,3.00
2022-11-27T11:30:53.116Z,2.80
2022-11-27T11:33:19.653Z,2.30
2022-11-27T11:35:51.954Z,3.03
2022-11-27T11:38:19.833Z,2.75
2022-11-27T11:40:57.175Z,2.60
2022-11-27T11:43:27.745Z,2.90
2022-11-27T11:45:54.055Z,3.10
2022-11-27T11:48:20.299Z,2.72
2022-11-27T11:50:49.881Z,2.60
2022-11-27T11:53:34.642Z,2.47
2022-11-27T11:56:15.859Z,3.40
2022-11-27T11:58:48.865Z,2.80
2022-11-27T12:01:27.758Z,3.25
2022-11-27T12:04:02.271Z,2.80
2022-11-27T12:06:34.562Z,3.33
2022-11-27T12:09:10.467Z,3.05
2022-11-27T12:11:45.602Z,2.67
2022-11-27T12:14:23.262Z,2.97
2022-11-27T12:17:00.472Z,2.95
2022-11-27T12:19:26.770Z,2.70
2022-11-27T12:21:53.016Z,3.47
2022-11-27T12:24:37.822Z,2.80
2022-11-27T12:27:07.508Z,3.08
2022-11-27T12:29:33.794Z,2.92
2022-11-27T12:32:03.524Z,2.90
2022-11-27T12:34:56.301Z,3.08
2022-11-27T12:37:22.531Z,3.13
2022-11-27T12:40:00.963Z,2.88
2022-11-27T12:42:34.446Z,2.90
2022-11-27T12:45:11.996Z,2.65
2022-11-27T12:47:42.070Z,2.88
2022-11-27T12:50:19.861Z,2.55
2022-11-27T12:52:49.974Z,3.30
2022-11-27T12:55:21.266Z,2.85
2022-11-27T12:57:49.714Z,2.70
2022-11-27T13:00:18.326Z,2.85
2022-11-27T13:03:04.846Z,3.05
2022-11-27T13:05:38.559Z,3.42
2022-11-27T13:08:25.095Z,3.03
2022-11-27T13:10:56.666Z,3.42
2022-11-27T13:13:30.282Z,2.90
2022-11-27T13:16:09.969Z,3.00
2022-11-27T13:18:36.231Z,3.08
2022-11-27T13:21:05.813Z,2.60
2022-11-27T13:23:33.878Z,2.80
2022-11-27T13:26:01.477Z,3.75
2022-11-27T13:28:39.867Z,2.80
2022-11-27T13:31:06.667Z,2.88
2022-11-27T13:33:34.044Z,2.60
2022-11-27T13:36:03.236Z,2.30
2022-11-27T13:38:32.615Z,2.78
2022-11-27T13:41:01.049Z,2.45
2022-11-27T13:43:44.004Z,2.88
2022-11-27T13:46:25.067Z,2.72
2022-11-27T13:48:53.771Z,2.78
2022-11-27T13:51:28.422Z,2.88
2022-11-27T13:54:06.200Z,2.90
2022-11-27T13:56:32.460Z,2.90
2022-11-27T13:58:58.756Z,3.35
2022-11-27T14:01:25.715Z,2.42
2022-11-27T14:03:52.450Z,2.50
2022-11-27T14:06:21.095Z,2.67
2022-11-27T14:08:58.581Z,2.67
2022-11-27T14:11:33.546Z,2.00
2022-11-27T14:14:00.032Z,2.60
2022-11-27T14:16:28.837Z,2.50
2022-11-27T14:18:57.020Z,2.72
2022-11-27T14:21:24.979Z,2.50
2022-11-27T14:23:52.380Z,2.35
2022-11-27T14:26:23.298Z,2.40
2022-11-27T14:28:51.708Z,2.40
2022-11-27T14:31:21.229Z,2.50
2022-11-27T14:34:13.610Z,2.50
2022-11-27T14:36:37.089Z,2.83
2022-11-27T14:39:04.107Z,2.50
2022-11-27T14:41:31.005Z,2.20
2022-11-27T14:44:08.195Z,3.03
2022-11-27T14:46:36.536Z,2.60
2022-11-27T14:49:02.903Z,3.10
2022-11-27T14:51:33.408Z,2.75
2022-11-27T14:54:01.444Z,2.25
2022-11-27T14:56:32.981Z,2.90
2022-11-27T14:58:59.522Z,2.58
2022-11-27T15:01:30.872Z,2.35
2022-11-27T15:03:58.006Z,2.88
2022-11-27T15:06:28.198Z,3.00
2022-11-27T15:09:23.813Z,2.53
2022-11-27T15:11:55.823Z,3.30
2022-11-27T15:14:22.794Z,3.88
2022-11-27T15:16:50.421Z,3.08
2022-11-27T15:19:18.739Z,2.95
2022-11-27T15:21:48.462Z,2.72
2022-11-27T15:24:28.609Z,2.97
2022-11-27T15:26:54.959Z,2.88
2022-11-27T15:29:30.834Z,2.70
2022-11-27T15:31:57.164Z,2.72
2022-11-27T15:34:24.283Z,2.80
2022-11-27T15:36:58.767Z,2.63
2022-11-27T15:39:37.438Z,2.55
2022-11-27T15:42:04.740Z,2.67
2022-11-27T15:44:32.027Z,2.15
2022-11-27T15:46:59.775Z,2.60
2022-11-27T15:49:26.235Z,2.30
2022-11-27T15:51:52.610Z,2.30
2022-11-27T15:54:18.866Z,2.65
2022-11-27T15:56:46.835Z,2.25
2022-11-27T15:59:13.455Z,2.35
2022-11-27T16:01:39.831Z,2.45
2022-11-27T16:04:06.460Z,2.35
2022-11-27T16:06:35.104Z,2.72
2022-11-27T16:09:01.480Z,2.80
2022-11-27T16:11:28.524Z,2.35
2022-11-27T16:13:54.891Z,2.58
2022-11-27T16:16:21.297Z,2.53
2022-11-27T16:18:48.686Z,2.28
2022-11-27T16:21:15.905Z,2.40
2022-11-27T16:23:42.409Z,2.38
2022-11-27T16:26:10.829Z,2.58
2022-11-27T16:28:37.117Z,2.10
2022-11-27T16:31:06.546Z,2.40
2022-11-27T16:33:32.859Z,2.80
2022-11-27T16:36:09.499Z,2.47
2022-11-27T16:38:35.860Z,2.58
2022-11-27T16:41:03.155Z,2.58
2022-11-27T16:43:29.704Z,2.42
2022-11-27T16:46:26.273Z,2.60
2022-11-27T16:48:53.255Z,2.53
2022-11-27T16:51:29.655Z,2.15
2022-11-27T16:53:56.823Z,2.13
2022-11-27T16:56:24.268Z,2.47
2022-11-27T16:58:51.097Z,2.55
2022-11-27T17:01:19.920Z,2.40
2022-11-27T17:03:46.353Z,2.65
2022-11-27T17:06:13.852Z,2.33
2022-11-27T17:08:40.509Z,2.42
2022-11-27T17:11:10.633Z,2.50
2022-11-27T17:13:37.278Z,2.30
2022-11-27T17:16:08.438Z,2.40
2022-11-27T17:18:38.725Z,2.80
2022-11-27T17:21:10.157Z,2.85
2022-11-27T17:23:36.932Z,2.42
2022-11-27T17:26:10.284Z,2.60
2022-11-27T17:28:36.957Z,2.70
2022-11-27T17:31:08.436Z,2.42
2022-11-27T17:33:34.759Z,2.30
2022-11-27T17:36:01.009Z,2.67
2022-11-27T17:38:27.235Z,2.50
2022-11-27T17:40:53.512Z,2.40
2022-11-27T17:43:19.730Z,2.50
2022-11-27T17:45:46.019Z,2.72
2022-11-27T17:48:12.356Z,2.80
2022-11-27T17:50:39.147Z,2.70
2022-11-27T17:53:05.393Z,2.40
2022-11-27T17:55:32.744Z,2.50
2022-11-27T17:57:59.182Z,2.25
2022-11-27T18:00:25.469Z,2.50
2022-11-27T18:02:51.770Z,2.53
2022-11-27T18:05:18.046Z,2.75
2022-11-27T18:07:44.404Z,2.20
2022-11-27T18:10:11.002Z,2.30
2022-11-27T18:12:37.392Z,2.38
2022-11-27T18:15:03.829Z,2.20
2022-11-27T18:17:30.116Z,2.83
2022-11-27T18:19:58.844Z,2.47
2022-11-27T18:22:25.315Z,2.83
2022-11-27T18:24:51.613Z,2.58
2022-11-27T18:27:17.957Z,2.75
2022-11-27T18:29:45.018Z,2.60
2022-11-27T18:32:12.092Z,2.40
2022-11-27T18:34:38.580Z,2.83
2022-11-27T18:37:05.163Z,2.85
2022-11-27T18:39:31.741Z,2.60
2022-11-27T18:42:00.920Z,2.45
2022-11-27T18:44:27.320Z,2.78
2022-11-27T18:46:53.600Z,3.20
2022-11-27T18:49:21.823Z,3.13
2022-11-27T18:51:49.681Z,2.67
2022-11-27T18:54:15.960Z,2.85
2022-11-27T18:56:42.258Z,2.58
2022-11-27T18:59:08.592Z,3.15
2022-11-27T19:01:41.550Z,2.92
2022-11-27T19:04:09.210Z,3.08
2022-11-27T19:06:36.078Z,2.88
2022-11-27T19:09:02.400Z,3.25
2022-11-27T19:11:30.626Z,3.33
2022-11-27T19:13:57.348Z,2.95
2022-11-27T19:16:25.493Z,2.60
2022-11-27T19:18:51.880Z,2.97
2022-11-27T19:21:22.874Z,2.83
2022-11-27T19:23:49.636Z,3.28
2022-11-27T19:26:17.255Z,2.90
2022-11-27T19:28:45.254Z,3.00
2022-11-27T19:31:12.905Z,3.22
2022-11-27T19:33:39.756Z,2.67
2022-11-27T19:36:08.487Z,2.60
2022-11-27T19:38:35.043Z,2.53
2022-11-27T19:41:01.327Z,2.90
2022-11-27T19:43:27.811Z,2.83
2022-11-27T19:45:54.296Z,3.17
2022-11-27T19:48:23.357Z,2.70
2022-11-27T19:50:51.530Z,2.88
2022-11-27T19:53:17.920Z,3.13
2022-11-27T19:55:46.264Z,2.83
2022-11-27T19:58:13.842Z,2.90
2022-11-27T20:00:40.198Z,3.13
2022-11-27T20:03:06.540Z,3.22
2022-11-27T20:05:32.828Z,2.65
2022-11-27T20:07:59.579Z,3.30
2022-11-27T20:10:26.283Z,2.90
2022-11-27T20:12:52.575Z,2.70
2022-11-27T20:15:19.538Z,3.08
2022-11-27T20:17:46.044Z,2.60
2022-11-27T20:20:13.319Z,2.50
2022-11-27T20:22:39.712Z,3.08
2022-11-27T20:25:20.667Z,2.80
2022-11-27T20:27:47.136Z,2.72
2022-11-27T20:30:13.872Z,2.58
2022-11-27T20:32:40.152Z,3.13
2022-11-27T20:35:06.490Z,2.95
2022-11-27T20:37:33.867Z,2.60
2022-11-27T20:40:00.160Z,2.80
2022-11-27T20:42:26.425Z,2.25
2022-11-27T20:44:52.759Z,2.97
2022-11-27T20:47:19.006Z,2.65
2022-11-27T20:49:45.330Z,2.58
2022-11-27T20:52:13.137Z,2.55
2022-11-27T20:54:39.415Z,2.97
2022-11-27T20:57:05.911Z,2.90
2022-11-27T20:59:32.257Z,2.80
2022-11-27T21:01:58.573Z,3.00
2022-11-27T21:04:25.746Z,2.70
2022-11-27T21:06:52.478Z,2.90
2022-11-27T21:09:19.298Z,2.90
2022-11-27T21:11:47.324Z,2.50
2022-11-27T21:14:14.662Z,3.53
2022-11-27T21:16:42.867Z,3.13
2022-11-27T21:19:16.831Z,2.67
2022-11-27T21:21:43.549Z,2.60
2022-11-27T21:24:09.903Z,2.63
2022-11-27T21:26:36.320Z,2.58
2022-11-27T21:29:02.651Z,3.08
2022-11-27T21:31:34.494Z,2.83
2022-11-27T21:34:04.215Z,2.50
2022-11-27T21:36:32.655Z,2.47
2022-11-27T21:38:59.603Z,2.90
2022-11-27T21:41:27.905Z,2.50
2022-11-27T21:43:55.813Z,2.38
2022-11-27T21:46:22.840Z,2.40
2022-11-27T21:48:50.582Z,2.45
2022-11-27T21:51:18.988Z,2.97
2022-11-27T21:53:45.776Z,2.50
2022-11-27T21:56:13.472Z,2.40
2022-11-27T21:58:40.147Z,3.22
2022-11-27T22:01:07.678Z,2.53
2022-11-27T22:03:38.614Z,2.58
2022-11-27T22:06:09.800Z,2.80
2022-11-27T22:08:37.204Z,2.50
2022-11-27T22:11:06.927Z,2.25
2022-11-27T22:13:33.192Z,2.83
2022-11-27T22:15:59.454Z,2.40
2022-11-27T22:18:26.040Z,2.47
2022-11-27T22:20:52.368Z,2.67
2022-11-27T22:23:18.664Z,2.40
2022-11-27T22:25:44.963Z,2.47
2022-11-27T22:28:11.314Z,2.50
2022-11-27T22:30:37.644Z,2.25
2022-11-27T22:33:03.950Z,2.55
2022-11-27T22:35:30.213Z,2.15
2022-11-27T22:37:56.505Z,2.45
2022-11-27T22:40:22.898Z,2.08
2022-11-27T22:42:49.331Z,2.63
2022-11-27T22:45:15.664Z,2.30
2022-11-27T22:47:41.905Z,2.05
2022-11-27T22:50:08.197Z,2.25
2022-11-27T22:52:34.454Z,2.25
2022-11-27T22:55:00.731Z,2.75
2022-11-27T22:57:27.030Z,2.40
2022-11-27T22:59:53.298Z,2.63
2022-11-27T23:02:19.597Z,2.72
2022-11-27T23:04:46.538Z,2.53
2022-11-27T23:07:12.994Z,2.17
2022-11-27T23:09:39.262Z,2.80
2022-11-27T23:12:05.628Z,2.42
2022-11-27T23:14:31.921Z,2.58
2022-11-27T23:16:58.760Z,2.55
2022-11-27T23:19:25.112Z,2.60
2022-11-27T23:21:51.522Z,2.40
2022-11-27T23:24:18.086Z,2.10
2022-11-27T23:26:45.644Z,1.92
2022-11-27T23:29:12.019Z,2.50
2022-11-27T23:31:38.690Z,2.38
2022-11-27T23:34:07.359Z,2.30
2022-11-27T23:36:34.691Z,2.60
2022-11-27T23:39:01.636Z,2.30
2022-11-27T23:41:27.987Z,2.30
2022-11-27T23:43:54.326Z,1.88
2022-11-27T23:46:21.658Z,2.30
2022-11-27T23:48:48.016Z,1.80
2022-11-27T23:51:15.470Z,1.80
2022-11-27T23:53:41.988Z,2.40
2022-11-27T23:56:09.751Z,2.40
2022-11-27T23:58:36.016Z,1.90
